Time,TemperatureF,DewpointF,PressureIn,WindDirection,WindDirectionDegrees,WindSpeedMPH,WindSpeedGustMPH,Humidity,HourlyPrecipIn,Conditions,Clouds,dailyrainin,SoftwareType,DateUTC
2013-01-04 00:00:00,32.9,24.6,30.25,NNE,23,2.6,4.2,71,0.00,,,0.00,WUHU216TE923,2013-01-04 05:00:00,
2013-01-04 00:01:00,32.9,24.6,30.25,NNE,23,2.6,4.2,71,0.00,,,0.00,WUHU216TE923,2013-01-04 05:01:00,
2013-01-04 00:02:00,32.7,24.4,30.25,NNE,23,2.4,3.2,71,0.00,,,0.00,WUHU216TE923,2013-01-04 05:02:00,
2013-01-04 00:07:00,32.7,24.4,30.25,NNE,23,2.2,3.3,71,0.00,,,0.00,WUHU216TE923,2013-01-04 05:07:00,
2013-01-04 00:12:00,32.7,24.4,30.25,NNE,23,2.2,3.3,71,0.00,,,0.00,WUHU216TE923,2013-01-04 05:12:00,
2013-01-04 00:17:00,32.9,24.6,30.24,NNE,23,2.5,3.3,71,0.00,,,0.00,WUHU216TE923,2013-01-04 05:17:00,
2013-01-04 00:22:00,32.7,24.1,30.24,NNE,23,2.6,3.0,70,0.00,,,0.00,WUHU216TE923,2013-01-04 05:22:00,
2013-01-04 00:27:00,32.5,23.9,30.24,NNE,23,2.5,2.9,70,0.00,,,0.00,WUHU216TE923,2013-01-04 05:27:00,
2013-01-04 00:32:00,32.5,23.9,30.24,NNE,23,2.4,3.3,70,0.00,,,0.00,WUHU216TE923,2013-01-04 05:32:00,
2013-01-04 00:37:00,32.5,24.2,30.24,NNE,23,2.4,3.8,71,0.00,,,0.00,WUHU216TE923,2013-01-04 05:37:00,
2013-01-04 00:42:00,32.5,24.2,30.24,NNE,23,2.5,3.8,71,0.00,,,0.00,WUHU216TE923,2013-01-04 05:42:00,
2013-01-04 00:47:00,32.4,24.1,30.24,NNE,23,2.7,2.8,71,0.00,,,0.00,WUHU216TE923,2013-01-04 05:47:00,
2013-01-04 00:52:00,32.5,24.2,30.24,NNE,23,2.8,4.6,71,0.00,,,0.00,WUHU216TE923,2013-01-04 05:52:00,
2013-01-04 00:57:00,32.2,23.9,30.24,NNE,23,3.3,4.6,71,0.00,,,0.00,WUHU216TE923,2013-01-04 05:57:00,
2013-01-04 01:02:00,32.0,24.0,30.24,NNE,23,3.6,3.6,72,0.00,,,0.00,WUHU216TE923,2013-01-04 06:02:00,
2013-01-04 01:07:00,32.2,24.2,30.24,NNE,23,3.6,4.3,72,0.00,,,0.00,WUHU216TE923,2013-01-04 06:07:00,
2013-01-04 01:12:00,31.8,23.9,30.24,NNE,23,3.6,4.3,72,0.00,,,0.00,WUHU216TE923,2013-01-04 06:12:00,
2013-01-04 01:17:00,31.8,23.9,30.24,NNE,23,3.0,4.3,72,0.00,,,0.00,WUHU216TE923,2013-01-04 06:17:00,
2013-01-04 01:22:00,31.8,24.2,30.24,NNE,23,2.3,3.0,73,0.00,,,0.00,WUHU216TE923,2013-01-04 06:22:00,
2013-01-04 01:27:00,31.8,23.9,30.24,NNE,23,2.0,3.1,72,0.00,,,0.00,WUHU216TE923,2013-01-04 06:27:00,
2013-01-04 01:32:00,31.8,23.9,30.24,NNE,23,2.1,3.1,72,0.00,,,0.00,WUHU216TE923,2013-01-04 06:32:00,
2013-01-04 01:37:00,31.8,23.9,30.23,NNE,23,2.2,2.7,72,0.00,,,0.00,WUHU216TE923,2013-01-04 06:37:00,
2013-01-04 01:42:00,31.8,24.2,30.23,NNE,23,2.1,2.4,73,0.00,,,0.00,WUHU216TE923,2013-01-04 06:42:00,
2013-01-04 01:47:00,31.8,24.2,30.23,NNE,23,2.2,2.6,73,0.00,,,0.00,WUHU216TE923,2013-01-04 06:47:00,
2013-01-04 01:52:00,31.8,24.2,30.23,NNE,23,2.4,2.8,73,0.00,,,0.00,WUHU216TE923,2013-01-04 06:52:00,
2013-01-04 01:57:00,31.8,23.9,30.24,NNE,23,2.6,3.4,72,0.00,,,0.00,WUHU216TE923,2013-01-04 06:57:00,
2013-01-04 02:02:00,31.8,24.2,30.24,NNE,23,2.2,3.4,73,0.00,,,0.00,WUHU216TE923,2013-01-04 07:02:00,
2013-01-04 02:07:00,31.8,24.2,30.24,NNE,23,1.8,2.2,73,0.00,,,0.00,WUHU216TE923,2013-01-04 07:07:00,
2013-01-04 02:12:00,31.8,24.5,30.24,NNE,23,1.5,2.5,74,0.00,,,0.00,WUHU216TE923,2013-01-04 07:12:00,
2013-01-04 02:17:00,31.8,24.5,30.24,NNE,23,1.6,2.5,74,0.00,,,0.00,WUHU216TE923,2013-01-04 07:17:00,
2013-01-04 02:22:00,31.8,24.2,30.24,NNE,23,1.8,2.2,73,0.00,,,0.00,WUHU216TE923,2013-01-04 07:22:00,
2013-01-04 02:27:00,31.8,24.2,30.24,NNE,23,1.3,2.3,73,0.00,,,0.00,WUHU216TE923,2013-01-04 07:27:00,
2013-01-04 02:32:00,31.8,24.2,30.24,NNE,23,1.0,2.3,73,0.00,,,0.00,WUHU216TE923,2013-01-04 07:32:00,
2013-01-04 02:37:00,32.2,24.9,30.23,NNE,23,1.2,2.2,74,0.00,,,0.00,WUHU216TE923,2013-01-04 07:37:00,
2013-01-04 02:42:00,32.0,24.4,30.23,NNE,23,1.5,2.2,73,0.00,,,0.00,WUHU216TE923,2013-01-04 07:42:00,
2013-01-04 02:47:00,32.0,24.0,30.23,NNE,23,1.7,2.5,72,0.00,,,0.00,WUHU216TE923,2013-01-04 07:47:00,
2013-01-04 02:52:00,32.0,24.0,30.23,NNE,23,1.5,2.5,72,0.00,,,0.00,WUHU216TE923,2013-01-04 07:52:00,
2013-01-04 02:57:00,32.0,24.0,30.22,NNE,23,1.8,2.4,72,0.00,,,0.00,WUHU216TE923,2013-01-04 07:57:00,
2013-01-04 03:02:00,32.0,24.4,30.22,NNE,23,1.8,2.6,73,0.00,,,0.00,WUHU216TE923,2013-01-04 08:02:00,
2013-01-04 03:07:00,32.0,24.4,30.22,NNE,23,1.8,2.6,73,0.00,,,0.00,WUHU216TE923,2013-01-04 08:07:00,
2013-01-04 03:12:00,32.0,24.4,30.22,NNE,23,1.8,1.8,73,0.00,,,0.00,WUHU216TE923,2013-01-04 08:12:00,
2013-01-04 03:17:00,32.2,24.9,30.23,NNE,23,1.2,2.4,74,0.00,,,0.00,WUHU216TE923,2013-01-04 08:17:00,
2013-01-04 03:22:00,32.2,24.9,30.23,NNE,23,1.2,2.4,74,0.00,,,0.00,WUHU216TE923,2013-01-04 08:22:00,
2013-01-04 03:27:00,32.2,24.9,30.23,NNE,23,1.3,1.7,74,0.00,,,0.00,WUHU216TE923,2013-01-04 08:27:00,
2013-01-04 03:32:00,32.0,24.7,30.23,NNE,23,1.5,2.0,74,0.00,,,0.00,WUHU216TE923,2013-01-04 08:32:00,
2013-01-04 03:37:00,32.2,24.9,30.23,NNE,23,1.6,2.0,74,0.00,,,0.00,WUHU216TE923,2013-01-04 08:37:00,
2013-01-04 03:42:00,32.2,24.6,30.23,NNE,23,1.6,2.0,73,0.00,,,0.00,WUHU216TE923,2013-01-04 08:42:00,
2013-01-04 03:47:00,32.0,24.4,30.23,NNE,23,1.9,3.0,73,0.00,,,0.00,WUHU216TE923,2013-01-04 08:47:00,
2013-01-04 03:52:00,32.0,24.7,30.23,NNE,23,1.9,3.0,74,0.00,,,0.00,WUHU216TE923,2013-01-04 08:52:00,
2013-01-04 03:57:00,32.0,24.7,30.23,NNE,23,2.2,2.8,74,0.00,,,0.00,WUHU216TE923,2013-01-04 08:57:00,
2013-01-04 04:02:00,32.2,24.9,30.23,NNE,23,2.3,2.7,74,0.00,,,0.00,WUHU216TE923,2013-01-04 09:02:00,
2013-01-04 04:07:00,32.2,24.9,30.23,NNE,23,2.4,3.4,74,0.00,,,0.00,WUHU216TE923,2013-01-04 09:07:00,
2013-01-04 04:12:00,32.2,24.6,30.23,NNE,23,2.5,3.4,73,0.00,,,0.00,WUHU216TE923,2013-01-04 09:12:00,
2013-01-04 04:17:00,32.0,24.4,30.23,NNE,23,2.3,3.4,73,0.00,,,0.00,WUHU216TE923,2013-01-04 09:17:00,
2013-01-04 04:22:00,32.2,24.6,30.23,NNE,23,2.2,2.7,73,0.00,,,0.00,WUHU216TE923,2013-01-04 09:22:00,
2013-01-04 04:27:00,32.2,24.6,30.23,NNE,23,2.2,2.2,73,0.00,,,0.00,WUHU216TE923,2013-01-04 09:27:00,
2013-01-04 04:32:00,32.2,24.6,30.23,NNE,23,1.9,2.2,73,0.00,,,0.00,WUHU216TE923,2013-01-04 09:32:00,
2013-01-04 04:37:00,32.2,24.6,30.23,NNE,23,1.9,2.4,73,0.00,,,0.00,WUHU216TE923,2013-01-04 09:37:00,
2013-01-04 04:42:00,32.2,24.6,30.23,NNE,23,1.9,2.4,73,0.00,,,0.00,WUHU216TE923,2013-01-04 09:42:00,
2013-01-04 04:47:00,32.2,24.2,30.23,NNE,23,1.9,1.9,72,0.00,,,0.00,WUHU216TE923,2013-01-04 09:47:00,
2013-01-04 04:52:00,32.2,24.6,30.23,NNE,23,1.6,2.3,73,0.00,,,0.00,WUHU216TE923,2013-01-04 09:52:00,
2013-01-04 04:57:00,32.5,24.9,30.22,NNE,23,1.7,2.8,73,0.00,,,0.00,WUHU216TE923,2013-01-04 09:57:00,
2013-01-04 05:02:00,32.5,24.9,30.22,NNE,23,2.0,2.8,73,0.00,,,0.00,WUHU216TE923,2013-01-04 10:02:00,
2013-01-04 05:07:00,32.5,24.9,30.22,NNE,23,1.9,2.6,73,0.00,,,0.00,WUHU216TE923,2013-01-04 10:07:00,
2013-01-04 05:12:00,32.5,24.9,30.22,NNE,23,1.7,3.4,73,0.00,,,0.00,WUHU216TE923,2013-01-04 10:12:00,
2013-01-04 05:17:00,32.5,24.5,30.23,NNE,23,1.7,3.4,72,0.00,,,0.00,WUHU216TE923,2013-01-04 10:17:00,
2013-01-04 05:22:00,32.4,24.4,30.23,NNE,23,1.8,2.7,72,0.00,,,0.00,WUHU216TE923,2013-01-04 10:22:00,
2013-01-04 05:27:00,32.5,24.5,30.23,NNE,23,2.1,2.8,72,0.00,,,0.00,WUHU216TE923,2013-01-04 10:27:00,
2013-01-04 05:32:00,32.5,24.5,30.23,NNE,23,2.2,2.8,72,0.00,,,0.00,WUHU216TE923,2013-01-04 10:32:00,
2013-01-04 05:37:00,32.5,24.9,30.22,NNE,23,2.1,2.5,73,0.00,,,0.00,WUHU216TE923,2013-01-04 10:37:00,
2013-01-04 05:42:00,32.5,24.5,30.22,NNE,23,1.9,2.3,72,0.00,,,0.00,WUHU216TE923,2013-01-04 10:42:00,
2013-01-04 05:47:00,32.5,24.5,30.22,NNE,23,1.4,2.3,72,0.00,,,0.00,WUHU216TE923,2013-01-04 10:47:00,
2013-01-04 05:52:00,32.5,24.5,30.22,NNE,23,1.6,2.3,72,0.00,,,0.00,WUHU216TE923,2013-01-04 10:52:00,
2013-01-04 05:57:00,32.5,24.5,30.21,NNE,23,1.7,2.1,72,0.00,,,0.00,WUHU216TE923,2013-01-04 10:57:00,
2013-01-04 06:02:00,32.5,24.5,30.21,NNE,23,1.7,1.8,72,0.00,,,0.00,WUHU216TE923,2013-01-04 11:02:00,
2013-01-04 06:07:00,32.5,24.5,30.21,NNE,23,1.7,2.7,72,0.00,,,0.00,WUHU216TE923,2013-01-04 11:07:00,
2013-01-04 06:12:00,32.5,24.5,30.21,NNE,23,1.7,2.7,72,0.00,,,0.00,WUHU216TE923,2013-01-04 11:12:00,
2013-01-04 06:17:00,32.5,24.5,30.23,NNE,23,1.7,3.1,72,0.00,,,0.00,WUHU216TE923,2013-01-04 11:17:00,
2013-01-04 06:22:00,32.5,24.5,30.23,NNE,23,2.4,3.1,72,0.00,,,0.00,WUHU216TE923,2013-01-04 11:22:00,
2013-01-04 06:27:00,32.5,24.5,30.23,NNE,23,2.3,2.8,72,0.00,,,0.00,WUHU216TE923,2013-01-04 11:27:00,
2013-01-04 06:32:00,32.5,24.9,30.23,NNE,23,2.3,4.5,73,0.00,,,0.00,WUHU216TE923,2013-01-04 11:32:00,
2013-01-04 06:37:00,32.4,24.8,30.24,NNE,23,2.5,4.5,73,0.00,,,0.00,WUHU216TE923,2013-01-04 11:37:00,
2013-01-04 06:43:00,32.4,24.8,30.24,NNE,23,2.8,4.0,73,0.00,,,0.00,WUHU216TE923,2013-01-04 11:43:00,
2013-01-04 06:48:00,32.4,24.8,30.24,NNE,23,2.9,4.0,73,0.00,,,0.00,WUHU216TE923,2013-01-04 11:48:00,
2013-01-04 06:53:00,32.2,24.2,30.24,NNE,23,2.8,3.7,72,0.00,,,0.00,WUHU216TE923,2013-01-04 11:53:00,
2013-01-04 06:58:00,32.2,24.2,30.24,West,270,3.0,4.0,72,0.00,,,0.00,WUHU216TE923,2013-01-04 11:58:00,
2013-01-04 07:03:00,32.2,24.6,30.24,SW,225,2.8,4.0,73,0.00,,,0.00,WUHU216TE923,2013-01-04 12:03:00,
2013-01-04 07:08:00,32.2,24.6,30.24,SW,225,2.5,3.4,73,0.00,,,0.00,WUHU216TE923,2013-01-04 12:08:00,
2013-01-04 07:13:00,32.0,24.4,30.24,WNW,293,2.5,3.0,73,0.00,,,0.00,WUHU216TE923,2013-01-04 12:13:00,
2013-01-04 07:18:00,32.0,24.4,30.24,WSW,248,2.7,3.0,73,0.00,,,0.00,WUHU216TE923,2013-01-04 12:18:00,
2013-01-04 07:23:00,31.8,24.2,30.24,SW,225,2.8,4.2,73,0.00,,,0.00,WUHU216TE923,2013-01-04 12:23:00,
2013-01-04 07:28:00,31.8,24.2,30.24,SW,225,2.9,4.2,73,0.00,,,0.00,WUHU216TE923,2013-01-04 12:28:00,
2013-01-04 07:33:00,31.8,24.2,30.24,South,180,2.7,2.9,73,0.00,,,0.00,WUHU216TE923,2013-01-04 12:33:00,
2013-01-04 07:38:00,31.8,24.2,30.25,SW,225,2.3,3.0,73,0.00,,,0.00,WUHU216TE923,2013-01-04 12:38:00,
2013-01-04 07:43:00,31.6,24.0,30.25,WSW,248,2.0,3.0,73,0.00,,,0.00,WUHU216TE923,2013-01-04 12:43:00,
2013-01-04 07:48:00,31.5,23.9,30.25,SW,225,1.9,2.3,73,0.00,,,0.00,WUHU216TE923,2013-01-04 12:48:00,
2013-01-04 07:53:00,31.5,23.9,30.25,WSW,248,2.0,2.6,73,0.00,,,0.00,WUHU216TE923,2013-01-04 12:53:00,
2013-01-04 07:58:00,31.3,23.7,30.24,WSW,248,2.0,2.6,73,0.00,,,0.00,WUHU216TE923,2013-01-04 12:58:00,
2013-01-04 08:03:00,31.3,23.7,30.24,SW,225,2.3,3.9,73,0.00,,,0.00,WUHU216TE923,2013-01-04 13:03:00,
2013-01-04 08:08:00,31.1,23.5,30.24,WSW,248,2.6,3.9,73,0.00,,,0.00,WUHU216TE923,2013-01-04 13:08:00,
2013-01-04 08:13:00,31.1,23.8,30.24,SW,225,2.6,2.8,74,0.00,,,0.00,WUHU216TE923,2013-01-04 13:13:00,
2013-01-04 08:18:00,31.1,23.5,30.25,West,270,2.6,3.5,73,0.00,,,0.00,WUHU216TE923,2013-01-04 13:18:00,
2013-01-04 08:23:00,31.1,23.8,30.25,WSW,248,3.0,3.7,74,0.00,,,0.00,WUHU216TE923,2013-01-04 13:23:00,
2013-01-04 08:28:00,31.1,23.8,30.25,SW,225,2.9,3.7,74,0.00,,,0.00,WUHU216TE923,2013-01-04 13:28:00,
2013-01-04 08:33:00,31.1,23.8,30.25,SSW,203,2.7,2.9,74,0.00,,,0.00,WUHU216TE923,2013-01-04 13:33:00,
2013-01-04 08:38:00,31.1,23.8,30.26,SW,225,2.7,2.7,74,0.00,,,0.00,WUHU216TE923,2013-01-04 13:38:00,
2013-01-04 08:43:00,31.1,23.8,30.26,WSW,248,2.9,2.9,74,0.00,,,0.00,WUHU216TE923,2013-01-04 13:43:00,
2013-01-04 08:48:00,31.1,23.8,30.26,West,270,3.0,4.7,74,0.00,,,0.00,WUHU216TE923,2013-01-04 13:48:00,
2013-01-04 08:53:00,31.1,23.8,30.26,West,270,3.5,4.8,74,0.00,,,0.00,WUHU216TE923,2013-01-04 13:53:00,
2013-01-04 08:58:00,31.1,23.8,30.26,SW,225,3.5,4.8,74,0.00,,,0.00,WUHU216TE923,2013-01-04 13:58:00,
2013-01-04 09:03:00,31.3,24.0,30.26,West,270,3.2,3.8,74,0.00,,,0.00,WUHU216TE923,2013-01-04 14:03:00,
2013-01-04 09:08:00,31.5,24.2,30.26,West,270,3.3,4.7,74,0.00,,,0.00,WUHU216TE923,2013-01-04 14:08:00,
2013-01-04 09:13:00,31.8,24.5,30.26,West,270,3.4,4.7,74,0.00,,,0.00,WUHU216TE923,2013-01-04 14:13:00,
2013-01-04 09:18:00,31.8,24.5,30.27,WSW,248,3.8,5.1,74,0.00,,,0.00,WUHU216TE923,2013-01-04 14:18:00,
2013-01-04 09:23:00,31.8,24.5,30.27,WSW,248,3.9,5.1,74,0.00,,,0.00,WUHU216TE923,2013-01-04 14:23:00,
2013-01-04 09:28:00,31.8,24.2,30.27,WSW,248,4.5,4.8,73,0.00,,,0.00,WUHU216TE923,2013-01-04 14:28:00,
2013-01-04 09:33:00,31.8,24.2,30.27,SW,225,4.3,5.0,73,0.00,,,0.00,WUHU216TE923,2013-01-04 14:33:00,
2013-01-04 09:38:00,32.2,24.6,30.27,WSW,248,4.2,6.3,73,0.00,,,0.00,WUHU216TE923,2013-01-04 14:38:00,
2013-01-04 09:43:00,32.5,24.9,30.27,WSW,248,4.1,6.3,73,0.00,,,0.00,WUHU216TE923,2013-01-04 14:43:00,
2013-01-04 09:48:00,32.5,24.9,30.27,WSW,248,4.1,5.8,73,0.00,,,0.00,WUHU216TE923,2013-01-04 14:48:00,
2013-01-04 09:53:00,32.9,25.2,30.27,West,270,4.0,4.0,73,0.00,,,0.00,WUHU216TE923,2013-01-04 14:53:00,
2013-01-04 09:58:00,32.7,25.1,30.28,WSW,248,4.3,5.5,73,0.00,,,0.00,WUHU216TE923,2013-01-04 14:58:00,
2013-01-04 10:03:00,33.3,25.6,30.28,SW,225,4.3,5.7,73,0.00,,,0.00,WUHU216TE923,2013-01-04 15:03:00,
2013-01-04 10:08:00,33.6,25.6,30.28,WSW,248,4.1,5.7,72,0.00,,,0.00,WUHU216TE923,2013-01-04 15:08:00,
2013-01-04 10:13:00,33.6,25.6,30.28,SW,225,4.0,5.4,72,0.00,,,0.00,WUHU216TE923,2013-01-04 15:13:00,
2013-01-04 10:18:00,34.0,26.0,30.29,West,270,4.0,5.4,72,0.00,,,0.00,WUHU216TE923,2013-01-04 15:18:00,
2013-01-04 10:23:00,34.2,26.2,30.29,SW,225,4.0,5.8,72,0.00,,,0.00,WUHU216TE923,2013-01-04 15:23:00,
2013-01-04 10:28:00,34.7,26.7,30.29,NW,315,4.4,5.8,72,0.00,,,0.00,WUHU216TE923,2013-01-04 15:28:00,
2013-01-04 10:33:00,34.9,26.5,30.29,West,270,4.7,5.1,71,0.00,,,0.00,WUHU216TE923,2013-01-04 15:33:00,
2013-01-04 10:38:00,34.9,26.5,30.31,NW,315,4.1,5.1,71,0.00,,,0.00,WUHU216TE923,2013-01-04 15:38:00,
2013-01-04 10:43:00,35.4,26.7,30.31,West,270,4.4,7.7,70,0.00,,,0.00,WUHU216TE923,2013-01-04 15:43:00,
2013-01-04 10:48:00,35.4,26.7,30.31,West,270,4.6,7.7,70,0.00,,,0.00,WUHU216TE923,2013-01-04 15:48:00,
2013-01-04 10:53:00,35.4,26.3,30.31,WSW,248,4.4,5.9,69,0.00,,,0.00,WUHU216TE923,2013-01-04 15:53:00,
2013-01-04 10:58:00,35.4,26.7,30.32,WNW,293,4.3,5.5,70,0.00,,,0.00,WUHU216TE923,2013-01-04 15:58:00,
2013-01-04 11:03:00,35.2,26.5,30.32,West,270,4.5,8.4,70,0.00,,,0.00,WUHU216TE923,2013-01-04 16:03:00,
2013-01-04 11:08:00,35.4,26.7,30.32,SW,225,5.2,8.4,70,0.00,,,0.00,WUHU216TE923,2013-01-04 16:08:00,
2013-01-04 11:13:00,35.4,26.7,30.32,SW,225,5.0,7.5,70,0.00,,,0.00,WUHU216TE923,2013-01-04 16:13:00,
2013-01-04 11:18:00,35.1,26.4,30.31,SW,225,4.6,7.5,70,0.00,,,0.00,WUHU216TE923,2013-01-04 16:18:00,
2013-01-04 11:23:00,35.4,26.7,30.31,WSW,248,4.7,6.3,70,0.00,,,0.00,WUHU216TE923,2013-01-04 16:23:00,
2013-01-04 11:28:00,35.8,27.0,30.31,WSW,248,4.5,6.3,70,0.00,,,0.00,WUHU216TE923,2013-01-04 16:28:00,
2013-01-04 11:33:00,36.3,27.5,30.31,WSW,248,4.7,5.5,70,0.00,,,0.00,WUHU216TE923,2013-01-04 16:33:00,
2013-01-04 11:38:00,36.9,28.1,30.30,WSW,248,4.8,8.8,70,0.00,,,0.00,WUHU216TE923,2013-01-04 16:38:00,
2013-01-04 11:43:00,37.6,28.4,30.30,West,270,5.2,8.8,69,0.00,,,0.00,WUHU216TE923,2013-01-04 16:43:00,
2013-01-04 11:48:00,37.6,27.7,30.30,West,270,6.1,7.5,67,0.00,,,0.00,WUHU216TE923,2013-01-04 16:48:00,
2013-01-04 11:53:00,37.9,28.0,30.30,WSW,248,6.1,11.6,67,0.00,,,0.00,WUHU216TE923,2013-01-04 16:53:00,
2013-01-04 11:58:00,38.3,28.0,30.30,West,270,6.1,11.6,66,0.00,,,0.00,WUHU216TE923,2013-01-04 16:58:00,
2013-01-04 12:03:00,38.3,27.6,30.30,SW,225,6.7,7.7,65,0.00,,,0.00,WUHU216TE923,2013-01-04 17:03:00,
2013-01-04 12:08:00,38.3,27.6,30.30,West,270,6.0,7.7,65,0.00,,,0.00,WUHU216TE923,2013-01-04 17:08:00,
2013-01-04 12:13:00,38.3,27.6,30.30,West,270,6.0,7.6,65,0.00,,,0.00,WUHU216TE923,2013-01-04 17:13:00,
2013-01-04 12:18:00,38.3,28.0,30.29,SW,225,6.7,8.9,66,0.00,,,0.00,WUHU216TE923,2013-01-04 17:18:00,
2013-01-04 12:23:00,39.0,27.9,30.29,WNW,293,6.2,8.9,64,0.00,,,0.00,WUHU216TE923,2013-01-04 17:23:00,
2013-01-04 12:28:00,39.6,28.5,30.29,SW,225,5.3,7.4,64,0.00,,,0.00,WUHU216TE923,2013-01-04 17:28:00,
2013-01-04 12:33:00,39.9,28.0,30.29,West,270,5.3,8.5,62,0.00,,,0.00,WUHU216TE923,2013-01-04 17:33:00,
2013-01-04 12:38:00,39.7,27.4,30.27,WNW,293,6.4,8.5,61,0.00,,,0.00,WUHU216TE923,2013-01-04 17:38:00,
2013-01-04 12:43:00,39.9,27.6,30.27,WSW,248,7.5,8.5,61,0.00,,,0.00,WUHU216TE923,2013-01-04 17:43:00,
2013-01-04 12:48:00,40.5,27.8,30.27,WSW,248,7.4,7.9,60,0.00,,,0.00,WUHU216TE923,2013-01-04 17:48:00,
2013-01-04 12:53:00,40.3,27.6,30.27,WNW,293,6.7,8.0,60,0.00,,,0.00,WUHU216TE923,2013-01-04 17:53:00,
2013-01-04 12:58:00,40.5,27.8,30.26,West,270,6.0,8.0,60,0.00,,,0.00,WUHU216TE923,2013-01-04 17:58:00,
2013-01-04 13:03:00,40.8,28.0,30.26,West,270,5.7,6.0,60,0.00,,,0.00,WUHU216TE923,2013-01-04 18:03:00,
2013-01-04 13:08:00,40.6,27.4,30.26,West,270,5.9,8.8,59,0.00,,,0.00,WUHU216TE923,2013-01-04 18:08:00,
2013-01-04 13:13:00,40.8,27.6,30.26,WSW,248,6.6,8.9,59,0.00,,,0.00,WUHU216TE923,2013-01-04 18:13:00,
2013-01-04 13:18:00,40.6,27.0,30.26,SW,225,6.9,8.9,58,0.00,,,0.00,WUHU216TE923,2013-01-04 18:18:00,
2013-01-04 13:23:00,41.0,27.8,30.26,West,270,6.7,8.2,59,0.00,,,0.00,WUHU216TE923,2013-01-04 18:23:00,
2013-01-04 13:28:00,41.4,27.8,30.26,West,270,5.9,10.8,58,0.00,,,0.00,WUHU216TE923,2013-01-04 18:28:00,
2013-01-04 13:33:00,41.5,28.3,30.26,SW,225,5.9,10.8,59,0.00,,,0.00,WUHU216TE923,2013-01-04 18:33:00,
2013-01-04 13:38:00,41.4,28.2,30.26,West,270,5.7,7.2,59,0.00,,,0.00,WUHU216TE923,2013-01-04 18:38:00,
2013-01-04 13:43:00,41.5,28.3,30.26,SW,225,4.7,6.7,59,0.00,,,0.00,WUHU216TE923,2013-01-04 18:43:00,
2013-01-04 13:48:00,42.6,28.9,30.26,SSE,158,4.2,7.0,58,0.00,,,0.00,WUHU216TE923,2013-01-04 18:48:00,
2013-01-04 13:53:00,41.9,28.2,30.26,WSW,248,4.6,7.5,58,0.00,,,0.00,WUHU216TE923,2013-01-04 18:53:00,
2013-01-04 13:58:00,41.5,27.9,30.25,West,270,4.8,7.5,58,0.00,,,0.00,WUHU216TE923,2013-01-04 18:58:00,
2013-01-04 14:03:00,41.5,28.3,30.25,West,270,4.0,7.5,59,0.00,,,0.00,WUHU216TE923,2013-01-04 19:03:00,
2013-01-04 14:08:00,41.0,27.4,30.25,SW,225,4.5,8.1,58,0.00,,,0.00,WUHU216TE923,2013-01-04 19:08:00,
2013-01-04 14:13:00,41.2,28.0,30.25,SW,225,5.2,8.1,59,0.00,,,0.00,WUHU216TE923,2013-01-04 19:13:00,
2013-01-04 14:18:00,40.6,27.0,30.25,SW,225,4.8,6.3,58,0.00,,,0.00,WUHU216TE923,2013-01-04 19:18:00,
2013-01-04 14:23:00,40.6,27.0,30.25,West,270,5.1,8.8,58,0.00,,,0.00,WUHU216TE923,2013-01-04 19:23:00,
2013-01-04 14:28:00,40.5,27.3,30.25,WSW,248,5.7,8.8,59,0.00,,,0.00,WUHU216TE923,2013-01-04 19:28:00,
2013-01-04 14:33:00,40.5,27.3,30.25,West,270,5.5,5.9,59,0.00,,,0.00,WUHU216TE923,2013-01-04 19:33:00,
2013-01-04 14:38:00,40.5,27.3,30.24,West,270,4.7,5.5,59,0.00,,,0.00,WUHU216TE923,2013-01-04 19:38:00,
2013-01-04 14:43:00,41.2,28.0,30.24,SSE,158,4.1,4.9,59,0.00,,,0.00,WUHU216TE923,2013-01-04 19:43:00,
2013-01-04 14:48:00,40.8,26.8,30.24,WSW,248,5.3,7.0,57,0.00,,,0.00,WUHU216TE923,2013-01-04 19:48:00,
2013-01-04 14:53:00,41.2,28.0,30.24,West,270,5.6,7.0,59,0.00,,,0.00,WUHU216TE923,2013-01-04 19:53:00,
2013-01-04 14:58:00,41.9,28.2,30.23,West,270,4.6,5.6,58,0.00,,,0.00,WUHU216TE923,2013-01-04 19:58:00,
2013-01-04 15:03:00,41.7,28.1,30.23,West,270,4.4,7.7,58,0.00,,,0.00,WUHU216TE923,2013-01-04 20:03:00,
2013-01-04 15:07:00,41.2,26.7,30.23,WSW,248,6.1,12.3,56,0.00,,,0.00,WUHU216TE923,2013-01-04 20:07:00,
2013-01-04 15:12:00,41.2,27.2,30.23,SW,225,6.7,12.3,57,0.00,,,0.00,WUHU216TE923,2013-01-04 20:12:00,
2013-01-04 15:17:00,41.4,27.3,30.24,WSW,248,5.8,6.8,57,0.00,,,0.00,WUHU216TE923,2013-01-04 20:17:00,
2013-01-04 15:22:00,42.1,28.0,30.24,WSW,248,5.3,7.1,57,0.00,,,0.00,WUHU216TE923,2013-01-04 20:22:00,
2013-01-04 15:27:00,42.3,28.2,30.24,SW,225,5.8,7.1,57,0.00,,,0.00,WUHU216TE923,2013-01-04 20:27:00,
2013-01-04 15:32:00,42.1,28.0,30.24,WSW,248,5.2,7.0,57,0.00,,,0.00,WUHU216TE923,2013-01-04 20:32:00,
2013-01-04 15:37:00,41.7,27.2,30.24,West,270,4.1,6.2,56,0.00,,,0.00,WUHU216TE923,2013-01-04 20:37:00,
2013-01-04 15:42:00,41.4,27.3,30.24,West,270,3.9,5.7,57,0.00,,,0.00,WUHU216TE923,2013-01-04 20:42:00,
2013-01-04 15:48:00,41.4,27.3,30.24,WSW,248,3.6,5.7,57,0.00,,,0.00,WUHU216TE923,2013-01-04 20:48:00,
2013-01-04 15:52:00,41.0,27.4,30.24,WSW,248,4.2,6.7,58,0.00,,,0.00,WUHU216TE923,2013-01-04 20:52:00,
2013-01-04 15:57:00,41.2,27.2,30.26,WSW,248,4.6,6.7,57,0.00,,,0.00,WUHU216TE923,2013-01-04 20:57:00,
2013-01-04 16:02:00,41.2,27.2,30.26,SW,225,5.2,7.9,57,0.00,,,0.00,WUHU216TE923,2013-01-04 21:02:00,
2013-01-04 16:08:00,41.2,27.6,30.26,WSW,248,5.6,7.9,58,0.00,,,0.00,WUHU216TE923,2013-01-04 21:08:00,
2013-01-04 16:12:00,40.8,27.2,30.26,WSW,248,5.3,5.9,58,0.00,,,0.00,WUHU216TE923,2013-01-04 21:12:00,
2013-01-04 16:17:00,40.8,27.2,30.26,West,270,5.1,7.8,58,0.00,,,0.00,WUHU216TE923,2013-01-04 21:17:00,
2013-01-04 16:22:00,40.5,27.3,30.26,West,270,4.7,7.8,59,0.00,,,0.00,WUHU216TE923,2013-01-04 21:22:00,
2013-01-04 16:28:00,40.5,27.3,30.26,WSW,248,4.3,4.7,59,0.00,,,0.00,WUHU216TE923,2013-01-04 21:28:00,
2013-01-04 16:33:00,40.1,27.4,30.26,WSW,248,4.2,7.2,60,0.00,,,0.00,WUHU216TE923,2013-01-04 21:33:00,
2013-01-04 16:38:00,40.1,27.4,30.26,West,270,4.7,7.2,60,0.00,,,0.00,WUHU216TE923,2013-01-04 21:38:00,
2013-01-04 16:43:00,40.1,27.0,30.26,West,270,4.9,6.0,59,0.00,,,0.00,WUHU216TE923,2013-01-04 21:43:00,
2013-01-04 16:48:00,39.9,27.2,30.26,West,270,4.2,4.9,60,0.00,,,0.00,WUHU216TE923,2013-01-04 21:48:00,
2013-01-04 16:53:00,40.1,27.8,30.26,West,270,3.6,4.2,61,0.00,,,0.00,WUHU216TE923,2013-01-04 21:53:00,
2013-01-04 16:58:00,40.1,27.4,30.25,WSW,248,3.5,5.5,60,0.00,,,0.00,WUHU216TE923,2013-01-04 21:58:00,
2013-01-04 17:03:00,40.1,27.4,30.25,WSW,248,3.6,5.5,60,0.00,,,0.00,WUHU216TE923,2013-01-04 22:03:00,
2013-01-04 17:08:00,40.1,27.8,30.25,NW,315,3.3,4.7,61,0.00,,,0.00,WUHU216TE923,2013-01-04 22:08:00,
2013-01-04 17:13:00,39.7,27.0,30.25,West,270,3.1,4.0,60,0.00,,,0.00,WUHU216TE923,2013-01-04 22:13:00,
2013-01-04 17:18:00,39.7,27.4,30.26,West,270,2.9,3.8,61,0.00,,,0.00,WUHU216TE923,2013-01-04 22:18:00,
2013-01-04 17:23:00,39.6,27.3,30.26,SW,225,2.4,3.8,61,0.00,,,0.00,WUHU216TE923,2013-01-04 22:23:00,
2013-01-04 17:28:00,39.4,27.5,30.26,SW,225,2.0,2.6,62,0.00,,,0.00,WUHU216TE923,2013-01-04 22:28:00,
2013-01-04 17:33:00,39.2,27.3,30.26,SW,225,1.8,2.6,62,0.00,,,0.00,WUHU216TE923,2013-01-04 22:33:00,
2013-01-04 17:38:00,39.0,27.2,30.26,West,270,1.5,1.8,62,0.00,,,0.00,WUHU216TE923,2013-01-04 22:38:00,
2013-01-04 17:43:00,39.0,27.2,30.26,WSW,248,1.5,2.8,62,0.00,,,0.00,WUHU216TE923,2013-01-04 22:43:00,
2013-01-04 17:48:00,38.5,27.1,30.26,SW,225,1.7,2.8,63,0.00,,,0.00,WUHU216TE923,2013-01-04 22:48:00,
2013-01-04 17:53:00,38.5,27.1,30.26,SW,225,1.9,2.4,63,0.00,,,0.00,WUHU216TE923,2013-01-04 22:53:00,
2013-01-04 17:58:00,38.5,27.1,30.25,SSW,203,1.7,2.1,63,0.00,,,0.00,WUHU216TE923,2013-01-04 22:58:00,
2013-01-04 18:03:00,38.3,26.9,30.25,WSW,248,1.6,2.1,63,0.00,,,0.00,WUHU216TE923,2013-01-04 23:03:00,
2013-01-04 18:08:00,38.1,26.7,30.25,WSW,248,1.6,1.6,63,0.00,,,0.00,WUHU216TE923,2013-01-04 23:08:00,
2013-01-04 18:13:00,37.9,26.5,30.25,SW,225,1.2,1.6,63,0.00,,,0.00,WUHU216TE923,2013-01-04 23:13:00,
2013-01-04 18:18:00,37.8,26.8,30.24,South,180,0.7,1.7,64,0.00,,,0.00,WUHU216TE923,2013-01-04 23:18:00,
2013-01-04 18:23:00,37.6,27.0,30.24,SW,225,0.8,1.7,65,0.00,,,0.00,WUHU216TE923,2013-01-04 23:23:00,
2013-01-04 18:28:00,37.2,27.0,30.24,North,0,0.7,1.5,66,0.00,,,0.00,WUHU216TE923,2013-01-04 23:28:00,
2013-01-04 18:33:00,37.0,26.8,30.24,NNE,23,0.4,0.7,66,0.00,,,0.00,WUHU216TE923,2013-01-04 23:33:00,
2013-01-04 18:38:00,37.0,27.1,30.25,West,270,0.3,0.4,67,0.00,,,0.00,WUHU216TE923,2013-01-04 23:38:00,
2013-01-04 18:43:00,36.3,26.5,30.25,NNW,338,0.3,0.3,67,0.00,,,0.00,WUHU216TE923,2013-01-04 23:43:00,
2013-01-04 18:48:00,36.1,26.3,30.25,NNW,338,0.0,0.3,67,0.00,,,0.00,WUHU216TE923,2013-01-04 23:48:00,
2013-01-04 18:53:00,36.3,26.5,30.25,NNW,338,0.0,0.0,67,0.00,,,0.00,WUHU216TE923,2013-01-04 23:53:00,
2013-01-04 18:58:00,36.1,26.3,30.26,NNW,338,0.0,0.0,67,0.00,,,0.00,WUHU216TE923,2013-01-04 23:58:00,
2013-01-04 19:03:00,35.6,25.8,30.26,WSW,248,0.0,0.0,67,0.00,,,0.00,WUHU216TE923,2013-01-05 00:03:00,
2013-01-04 19:08:00,35.8,26.3,30.26,WSW,248,0.0,0.0,68,0.00,,,0.00,WUHU216TE923,2013-01-05 00:08:00,
2013-01-04 19:13:00,35.4,26.0,30.26,WSW,248,0.0,0.0,68,0.00,,,0.00,WUHU216TE923,2013-01-05 00:13:00,
2013-01-04 19:18:00,35.4,26.0,30.26,West,270,0.0,0.0,68,0.00,,,0.00,WUHU216TE923,2013-01-05 00:18:00,
2013-01-04 19:23:00,34.9,25.8,30.26,West,270,0.0,0.0,69,0.00,,,0.00,WUHU216TE923,2013-01-05 00:23:00,
2013-01-04 19:28:00,34.9,25.8,30.26,WNW,293,0.0,0.0,69,0.00,,,0.00,WUHU216TE923,2013-01-05 00:28:00,
2013-01-04 19:33:00,34.9,25.8,30.26,WNW,293,0.0,0.0,69,0.00,,,0.00,WUHU216TE923,2013-01-05 00:33:00,
2013-01-04 19:38:00,34.9,25.8,30.26,WNW,293,0.0,0.0,69,0.00,,,0.00,WUHU216TE923,2013-01-05 00:38:00,
2013-01-04 19:43:00,34.7,25.6,30.26,WNW,293,0.0,0.0,69,0.00,,,0.00,WUHU216TE923,2013-01-05 00:43:00,
2013-01-04 19:48:00,34.7,25.6,30.26,WNW,293,0.0,0.0,69,0.00,,,0.00,WUHU216TE923,2013-01-05 00:48:00,
2013-01-04 19:53:00,34.7,25.6,30.26,WSW,248,0.0,0.0,69,0.00,,,0.00,WUHU216TE923,2013-01-05 00:53:00,
2013-01-04 19:58:00,34.3,25.6,30.26,WSW,248,0.0,0.0,70,0.00,,,0.00,WUHU216TE923,2013-01-05 00:58:00,
2013-01-04 20:03:00,34.2,25.5,30.26,South,180,0.1,0.1,70,0.00,,,0.00,WUHU216TE923,2013-01-05 01:03:00,
2013-01-04 20:08:00,34.3,25.9,30.26,WNW,293,0.1,0.1,71,0.00,,,0.00,WUHU216TE923,2013-01-05 01:08:00,
2013-01-04 20:13:00,34.3,25.9,30.26,SW,225,0.1,0.1,71,0.00,,,0.00,WUHU216TE923,2013-01-05 01:13:00,
2013-01-04 20:18:00,34.3,25.9,30.26,West,270,0.0,0.1,71,0.00,,,0.00,WUHU216TE923,2013-01-05 01:18:00,
2013-01-04 20:23:00,34.0,25.6,30.26,West,270,0.0,0.0,71,0.00,,,0.00,WUHU216TE923,2013-01-05 01:23:00,
2013-01-04 20:28:00,33.6,25.3,30.26,SW,225,0.0,0.0,71,0.00,,,0.00,WUHU216TE923,2013-01-05 01:28:00,
2013-01-04 20:34:00,33.6,25.3,30.26,WSW,248,0.0,0.0,71,0.00,,,0.00,WUHU216TE923,2013-01-05 01:34:00,
2013-01-04 20:39:00,33.6,25.3,30.26,SW,225,0.0,0.0,71,0.00,,,0.00,WUHU216TE923,2013-01-05 01:39:00,
2013-01-04 20:44:00,33.8,25.5,30.26,SW,225,0.2,1.2,71,0.00,,,0.00,WUHU216TE923,2013-01-05 01:44:00,
2013-01-04 20:49:00,33.8,25.5,30.26,SW,225,0.4,1.2,71,0.00,,,0.00,WUHU216TE923,2013-01-05 01:49:00,
2013-01-04 20:54:00,33.6,25.3,30.26,SW,225,0.2,0.4,71,0.00,,,0.00,WUHU216TE923,2013-01-05 01:54:00,
2013-01-04 20:59:00,33.4,25.1,30.25,WSW,248,0.0,0.2,71,0.00,,,0.00,WUHU216TE923,2013-01-05 01:59:00,
2013-01-04 21:04:00,33.4,25.4,30.25,WSW,248,0.0,0.0,72,0.00,,,0.00,WUHU216TE923,2013-01-05 02:04:00,
2013-01-04 21:09:00,33.3,25.3,30.25,WSW,248,0.0,0.0,72,0.00,,,0.00,WUHU216TE923,2013-01-05 02:09:00,
2013-01-04 21:14:00,33.3,25.3,30.25,WSW,248,0.0,0.0,72,0.00,,,0.00,WUHU216TE923,2013-01-05 02:14:00,
2013-01-04 21:19:00,33.3,25.0,30.25,WSW,248,0.0,0.0,71,0.00,,,0.00,WUHU216TE923,2013-01-05 02:19:00,
2013-01-04 21:24:00,33.1,24.8,30.25,WSW,248,0.0,0.0,71,0.00,,,0.00,WUHU216TE923,2013-01-05 02:24:00,
2013-01-04 21:29:00,33.3,25.0,30.25,West,270,0.0,0.0,71,0.00,,,0.00,WUHU216TE923,2013-01-05 02:29:00,
2013-01-04 21:34:00,33.3,25.3,30.25,WSW,248,0.0,0.0,72,0.00,,,0.00,WUHU216TE923,2013-01-05 02:34:00,
2013-01-04 21:40:00,33.3,25.6,30.26,SW,225,0.3,1.0,73,0.00,,,0.00,WUHU216TE923,2013-01-05 02:40:00,
2013-01-04 21:45:00,33.1,25.4,30.26,South,180,0.7,1.3,73,0.00,,,0.00,WUHU216TE923,2013-01-05 02:45:00,
2013-01-04 21:50:00,33.1,25.4,30.26,South,180,0.7,1.3,73,0.00,,,0.00,WUHU216TE923,2013-01-05 02:50:00,
2013-01-04 21:55:00,32.7,25.1,30.26,NE,45,0.0,0.3,73,0.00,,,0.00,WUHU216TE923,2013-01-05 02:55:00,
2013-01-04 22:00:00,32.7,25.1,30.26,NE,45,0.0,0.3,73,0.00,,,0.00,WUHU216TE923,2013-01-05 03:00:00,
2013-01-04 22:05:00,32.9,25.2,30.26,NNE,23,0.0,0.0,73,0.00,,,0.00,WUHU216TE923,2013-01-05 03:05:00,
2013-01-04 22:10:00,32.9,25.2,30.26,NNE,23,0.0,0.0,73,0.00,,,0.00,WUHU216TE923,2013-01-05 03:10:00,
2013-01-04 22:15:00,32.7,24.7,30.27,NE,45,0.0,0.0,72,0.00,,,0.00,WUHU216TE923,2013-01-05 03:15:00,
2013-01-04 22:20:00,32.7,24.7,30.27,NE,45,0.0,0.0,72,0.00,,,0.00,WUHU216TE923,2013-01-05 03:20:00,
2013-01-04 22:25:00,32.7,24.7,30.27,NE,45,0.0,0.0,72,0.00,,,0.00,WUHU216TE923,2013-01-05 03:25:00,
2013-01-04 22:30:00,32.7,24.7,30.27,NE,45,0.0,0.0,72,0.00,,,0.00,WUHU216TE923,2013-01-05 03:30:00,
2013-01-04 22:35:00,32.7,24.4,30.26,NNE,23,0.0,0.0,71,0.00,,,0.00,WUHU216TE923,2013-01-05 03:35:00,
2013-01-04 22:40:00,32.7,24.4,30.26,NNE,23,0.0,0.0,71,0.00,,,0.00,WUHU216TE923,2013-01-05 03:40:00,
2013-01-04 22:45:00,32.5,24.5,30.26,NNE,23,0.0,0.0,72,0.00,,,0.00,WUHU216TE923,2013-01-05 03:45:00,
2013-01-04 22:51:00,32.5,24.5,30.26,NNE,23,0.0,0.0,72,0.00,,,0.00,WUHU216TE923,2013-01-05 03:51:00,
2013-01-04 22:55:00,32.2,24.2,30.26,NNE,23,0.0,0.0,72,0.00,,,0.00,WUHU216TE923,2013-01-05 03:55:00,
2013-01-04 23:00:00,32.2,24.2,30.26,NNE,23,0.0,0.0,72,0.00,,,0.00,WUHU216TE923,2013-01-05 04:00:00,
2013-01-04 23:05:00,32.2,24.2,30.26,NNE,23,0.0,0.0,72,0.00,,,0.00,WUHU216TE923,2013-01-05 04:05:00,
2013-01-04 23:10:00,32.2,24.2,30.26,NNE,23,0.0,0.0,72,0.00,,,0.00,WUHU216TE923,2013-01-05 04:10:00,
2013-01-04 23:15:00,32.2,24.2,30.25,NNE,23,0.0,0.0,72,0.00,,,0.00,WUHU216TE923,2013-01-05 04:15:00,
2013-01-04 23:20:00,32.2,24.2,30.25,NNE,23,0.0,0.0,72,0.00,,,0.00,WUHU216TE923,2013-01-05 04:20:00,
2013-01-04 23:25:00,32.2,24.2,30.25,NNE,23,0.0,0.0,72,0.00,,,0.00,WUHU216TE923,2013-01-05 04:25:00,
2013-01-04 23:30:00,32.2,24.2,30.25,NNE,23,0.0,0.0,72,0.00,,,0.00,WUHU216TE923,2013-01-05 04:30:00,
2013-01-04 23:35:00,31.8,24.2,30.26,NW,315,0.0,0.0,73,0.00,,,0.00,WUHU216TE923,2013-01-05 04:35:00,
2013-01-04 23:40:00,31.8,24.2,30.26,NW,315,0.0,0.0,73,0.00,,,0.00,WUHU216TE923,2013-01-05 04:40:00,
2013-01-04 23:45:00,31.6,24.0,30.26,NW,315,0.0,0.0,73,0.00,,,0.00,WUHU216TE923,2013-01-05 04:45:00,
2013-01-04 23:51:00,31.6,24.0,30.26,NW,315,0.0,0.0,73,0.00,,,0.00,WUHU216TE923,2013-01-05 04:51:00,
2013-01-04 23:56:00,31.8,24.5,30.25,NW,315,0.0,0.0,74,0.00,,,0.00,WUHU216TE923,2013-01-05 04:56:00,